Zapolyarye — UBEF5 — position and weather

sailwx.info

Track history (hours):
 
Tides and Currents Weather Stations Pressure Air Temp Water Temp Dewpoint Dewpoint Depression Visibility Wind Speed Wind Dir Waves Ship Positions

Zapolyarye

Last reported at 2017-Nov-19 18:59 UTC. Time now 2017-Nov-20 10:03 UTC.
Position N 55°00' E 013°44'.

Length 181 m; draft 9.8 m.

Type: Cargo ship. MMSI: 273338310.

Date/timePositionNaut miles runAvg speedWind from/ knotsBaromVisibWave heightAir tempDewpointWater temp
2017-Nov-19 18:59N 55°00' E 013°44'1510.0
2017-Nov-19 17:30N 55°07' E 014°07'510.8
2017-Nov-19 17:00N 55°11' E 014°13'510.8
2017-Nov-19 16:30N 55°15' E 014°19'611.0
2017-Nov-19 16:00N 55°19' E 014°26'610.9
2017-Nov-19 15:29N 55°24' E 014°32'610.2
2017-Nov-19 14:53N 55°28' E 014°40'410.2
2017-Nov-19 14:27N 55°30' E 014°47'5 9.9
2017-Nov-19 13:56N 55°32' E 014°54'4 9.8
2017-Nov-19 13:30N 55°35' E 015°01'9 9.9
2017-Nov-19 12:37N 55°39' E 015°14'110.0
2017-Nov-19 12:30N 55°40' E 015°16'5 9.9
2017-Nov-19 12:00N 55°42' E 015°24'5 9.9
2017-Nov-19 11:30N 55°44' E 015°31'5 9.8
2017-Nov-19 11:00N 55°47' E 015°39'5 9.8
2017-Nov-19 10:30N 55°50' E 015°46'5 9.6
2017-Nov-19 10:00N 55°53' E 015°53'5 9.5
2017-Nov-19 09:30N 55°55' E 016°00'5 9.3
2017-Nov-19 09:00N 55°57' E 016°08'5 9.6
2017-Nov-19 08:30N 55°59' E 016°15'5 9.7
2017-Nov-19 08:00N 56°02' E 016°23'5 9.1
2017-Nov-19 07:30N 56°04' E 016°30'5 9.8
2017-Nov-19 07:00N 56°06' E 016°37'5 9.6
2017-Nov-19 06:30N 56°09' E 016°44'3 6.6
2017-Nov-19 06:00N 56°12' E 016°48'   260 / 17994.3 5.4 8.0 10.0
2017-Nov-12 06:00N 57°00' E 023°36'12 1.0 200 / 21987.5 5.4 6.0 8.0
2017-Nov-11 18:00N 57°12' E 023°42'0 0.0 160 / 39988.4 5.4 7.0 8.0
2017-Nov-11 06:00N 57°12' E 023°42'9 0.7 160 / 171001.0 5.4 7.0 8.0
2017-Nov-10 18:00N 57°18' E 023°30'97 8.1 180 / 141002.3 5.4 9.0 8.0
2017-Nov-10 06:00N 57°24' E 020°30'   270 / 191004.0 5.4 12.0 11.0
Track history (hours):
 
Tides and Currents Weather Stations Pressure Air Temp Water Temp Dewpoint Dewpoint Depression Visibility Wind Speed Wind Dir Waves Ship Positions

Zapolyarye

Last reported at 2017-Nov-19 18:59 UTC. Time now 2017-Nov-20 10:03 UTC.
Position N 55°00' E 013°44'.

Length 181 m; draft 9.8 m.

Type: Cargo ship. MMSI: 273338310.

Date/timePositionNaut miles runAvg speedWind from/ knotsBaromVisibWave heightAir tempDewpointWater temp
2017-Nov-19 18:59N 55°00' E 013°44'1510.0
2017-Nov-19 17:30N 55°07' E 014°07'510.8
2017-Nov-19 17:00N 55°11' E 014°13'510.8
2017-Nov-19 16:30N 55°15' E 014°19'611.0
2017-Nov-19 16:00N 55°19' E 014°26'610.9
2017-Nov-19 15:29N 55°24' E 014°32'610.2
2017-Nov-19 14:53N 55°28' E 014°40'410.2
2017-Nov-19 14:27N 55°30' E 014°47'5 9.9
2017-Nov-19 13:56N 55°32' E 014°54'4 9.8
2017-Nov-19 13:30N 55°35' E 015°01'9 9.9
2017-Nov-19 12:37N 55°39' E 015°14'110.0
2017-Nov-19 12:30N 55°40' E 015°16'5 9.9
2017-Nov-19 12:00N 55°42' E 015°24'5 9.9
2017-Nov-19 11:30N 55°44' E 015°31'5 9.8
2017-Nov-19 11:00N 55°47' E 015°39'5 9.8
2017-Nov-19 10:30N 55°50' E 015°46'5 9.6
2017-Nov-19 10:00N 55°53' E 015°53'5 9.5
2017-Nov-19 09:30N 55°55' E 016°00'5 9.3
2017-Nov-19 09:00N 55°57' E 016°08'5 9.6
2017-Nov-19 08:30N 55°59' E 016°15'5 9.7
2017-Nov-19 08:00N 56°02' E 016°23'5 9.1
2017-Nov-19 07:30N 56°04' E 016°30'5 9.8
2017-Nov-19 07:00N 56°06' E 016°37'5 9.6
2017-Nov-19 06:30N 56°09' E 016°44'3 6.6
2017-Nov-19 06:00N 56°12' E 016°48'   260 / 17994.3 5.4 8.0 10.0
2017-Nov-12 06:00N 57°00' E 023°36'12 1.0 200 / 21987.5 5.4 6.0 8.0
2017-Nov-11 18:00N 57°12' E 023°42'0 0.0 160 / 39988.4 5.4 7.0 8.0
2017-Nov-11 06:00N 57°12' E 023°42'9 0.7 160 / 171001.0 5.4 7.0 8.0
2017-Nov-10 18:00N 57°18' E 023°30'97 8.1 180 / 141002.3 5.4 9.0 8.0
2017-Nov-10 06:00N 57°24' E 020°30'   270 / 191004.0 5.4 12.0 11.0

Dump ship's entire track history